createdAt,value
2018-05-18T00:02:20.687Z,8.05
2018-05-18T00:08:21.451Z,7.74
2018-05-18T00:14:22.341Z,8.11
2018-05-18T00:18:23.137Z,8.7
2018-05-18T00:24:23.994Z,8.11
2018-05-18T00:28:24.910Z,8.59
2018-05-18T00:30:26.162Z,8.46
2018-05-18T00:34:26.822Z,8.68
2018-05-18T00:40:27.580Z,8.53
2018-05-18T00:44:28.331Z,7.96
2018-05-18T00:50:29.126Z,8.42
2018-05-18T00:56:31.334Z,8.68
2018-05-18T01:00:34.168Z,7.58
2018-05-18T01:06:38.321Z,8.9
2018-05-18T01:10:40.425Z,8.78
2018-05-18T01:16:41.219Z,8.37
2018-05-18T01:22:41.918Z,8.78
2018-05-18T01:26:42.732Z,7.98
2018-05-18T01:32:43.470Z,9.15
2018-05-18T01:36:44.288Z,8.42
2018-05-18T01:38:45.228Z,9.35
2018-05-18T01:42:46.040Z,10.18
2018-05-18T01:48:46.796Z,7.38
2018-05-18T01:52:47.542Z,8.17
2018-05-18T01:58:48.341Z,8.46
2018-05-18T02:04:49.108Z,7.99
2018-05-18T02:08:49.809Z,9.37
2018-05-18T02:14:50.536Z,8.29
2018-05-18T02:18:51.215Z,8.44
2018-05-18T02:24:52.040Z,7.96
2018-05-18T02:30:52.753Z,8.54
2018-05-18T02:34:53.499Z,8.32
2018-05-18T02:40:54.308Z,8.02
2018-05-18T02:44:55.031Z,8.52
2018-05-18T02:46:55.735Z,8.24
2018-05-18T02:50:56.506Z,7.36
2018-05-18T02:56:57.237Z,7.92
2018-05-18T03:00:58.100Z,7.92
2018-05-18T03:06:58.947Z,7.63
2018-05-18T03:12:59.692Z,8.98
2018-05-18T03:17:00.875Z,9.04
2018-05-18T03:23:01.818Z,8.95
2018-05-18T03:27:02.610Z,8.13
2018-05-18T03:33:03.487Z,9.6
2018-05-18T03:39:04.286Z,9.4
2018-05-18T03:43:05.222Z,8.51
2018-05-18T03:49:05.991Z,10.52
2018-05-18T03:53:06.750Z,8.23
2018-05-18T03:55:07.447Z,8.41
2018-05-18T03:59:08.239Z,9.02
2018-05-18T04:05:09.043Z,9.41
2018-05-18T04:09:09.777Z,8.75
2018-05-18T04:15:10.899Z,11.94
2018-05-18T04:21:11.662Z,10.18
2018-05-18T04:25:12.317Z,9.59
2018-05-18T04:31:13.114Z,12.58
2018-05-18T04:35:13.868Z,8.95
2018-05-18T04:37:14.633Z,8.09
2018-05-18T04:41:15.468Z,9
2018-05-18T04:47:18.670Z,11.29
2018-05-18T04:51:19.509Z,11.35
2018-05-18T04:57:20.259Z,7.98
2018-05-18T05:01:21.057Z,8.89
2018-05-18T05:03:21.665Z,9.49
2018-05-18T05:07:22.434Z,10.91
2018-05-18T05:13:23.382Z,8.75
2018-05-18T05:17:24.194Z,8.88
2018-05-18T05:23:24.943Z,10.72
2018-05-18T05:29:25.681Z,10.01
2018-05-18T05:33:26.503Z,8.95
2018-05-18T05:39:27.315Z,9.99
2018-05-18T05:43:28.102Z,9.67
2018-05-18T05:45:28.859Z,9.13
2018-05-18T05:49:30.009Z,10.66
2018-05-18T05:55:30.760Z,10.03
2018-05-18T05:59:31.742Z,10.43
2018-05-18T06:05:32.548Z,11.62
2018-05-18T06:09:33.268Z,13.32
2018-05-18T06:11:33.984Z,13.23
2018-05-18T06:15:35.403Z,12.93
2018-05-18T06:21:36.233Z,13.8
2018-05-18T06:25:36.915Z,13.91
2018-05-18T06:31:37.750Z,11.36
2018-05-18T06:37:38.596Z,11.95
2018-05-18T06:41:39.370Z,11.71
2018-05-18T06:47:40.190Z,9.96
2018-05-18T06:51:40.939Z,10.28
2018-05-18T06:53:41.615Z,9.73
2018-05-18T06:57:42.464Z,8.37
2018-05-18T07:03:43.216Z,10.11
2018-05-18T07:07:44.079Z,9.01
2018-05-18T07:13:44.933Z,16.21
2018-05-18T07:19:45.799Z,17.49
2018-05-18T07:23:46.627Z,17.19
2018-05-18T07:29:47.368Z,16.11
2018-05-18T07:33:48.220Z,15.01
2018-05-18T07:33:48.258Z,15.01
2018-05-18T07:39:49.000Z,14.49
2018-05-18T07:45:49.818Z,12.77
2018-05-18T07:49:50.600Z,12.67
2018-05-18T07:55:51.355Z,21.31
2018-05-18T07:59:52.231Z,22.78
2018-05-18T08:01:52.915Z,13.26
2018-05-18T08:05:53.717Z,15.58
2018-05-18T08:11:54.539Z,14.33
2018-05-18T08:15:55.301Z,17.07
2018-05-18T08:21:56.104Z,12.82
2018-05-18T08:27:56.874Z,10.84
2018-05-18T08:31:57.572Z,9.11
2018-05-18T08:37:58.339Z,12.49
2018-05-18T08:41:59.134Z,11.48
2018-05-18T08:43:59.907Z,10.59
2018-05-18T08:48:00.614Z,9.86
2018-05-18T08:54:01.383Z,7.9
2018-05-18T08:58:02.170Z,7.01
2018-05-18T09:04:03.068Z,7.95
2018-05-18T09:08:03.894Z,6.88
2018-05-18T09:10:04.692Z,6.22
2018-05-18T09:14:05.545Z,6.89
2018-05-18T09:20:06.603Z,6.64
2018-05-18T09:24:07.432Z,8.12
2018-05-18T09:30:08.217Z,5.61
2018-05-18T09:36:08.975Z,5.69
2018-05-18T09:40:10.267Z,5.33
2018-05-18T09:46:11.000Z,3.59
2018-05-18T09:50:11.734Z,2.9
2018-05-18T09:52:12.468Z,3.87
2018-05-18T09:56:13.327Z,3.76
2018-05-18T10:02:14.025Z,3.66
2018-05-18T10:06:14.701Z,3.32
2018-05-18T10:12:15.454Z,4.94
2018-05-18T10:18:16.220Z,3.05
2018-05-18T10:22:17.004Z,3.51
2018-05-18T10:28:17.899Z,3.59
2018-05-18T10:32:18.754Z,5.31
2018-05-18T10:38:19.450Z,3.54
2018-05-18T10:38:19.471Z,3.54
2018-05-18T10:44:20.176Z,2.96
2018-05-18T10:48:21.045Z,2.68
2018-05-18T10:54:21.793Z,2.54
2018-05-18T10:58:22.613Z,2.24
2018-05-18T11:00:23.659Z,3.33
2018-05-18T11:04:24.404Z,3.67
2018-05-18T11:10:25.284Z,2.87
2018-05-18T11:14:26.208Z,2.56
2018-05-18T11:20:26.995Z,3.46
2018-05-18T11:26:27.898Z,2.88
2018-05-18T11:30:29.240Z,3.03
2018-05-18T11:36:30.023Z,2.93
2018-05-18T11:40:30.776Z,2.38
2018-05-18T11:42:31.491Z,5.37
2018-05-18T11:46:32.343Z,2.92
2018-05-18T11:52:33.064Z,3.95
2018-05-18T11:56:33.977Z,2.39
2018-05-18T12:02:34.645Z,3.78
2018-05-18T12:06:35.502Z,3.63
2018-05-18T12:08:36.348Z,4.34
2018-05-18T12:12:37.038Z,5.77
2018-05-18T12:18:37.703Z,4.23
2018-05-18T12:22:38.508Z,3.19
2018-05-18T12:28:39.246Z,2.74
2018-05-18T12:34:40.073Z,4.12
2018-05-18T12:38:40.816Z,3.7
2018-05-18T12:44:41.690Z,2.42
2018-05-18T12:48:42.426Z,2.78
2018-05-18T12:50:43.333Z,2.33
2018-05-18T12:54:44.034Z,1.97
2018-05-18T13:00:44.851Z,2.44
2018-05-18T13:04:45.939Z,2.39
2018-05-18T13:10:46.817Z,2.77
2018-05-18T13:16:47.614Z,4.18
2018-05-18T13:20:48.589Z,2.48
2018-05-18T13:26:49.311Z,3.23
2018-05-18T13:30:50.112Z,2.21
2018-05-18T13:36:51.047Z,1.64
2018-05-18T13:42:51.793Z,1.79
2018-05-18T13:46:52.566Z,1.69
2018-05-18T13:52:53.366Z,2.8
2018-05-18T13:56:54.085Z,2.43
2018-05-18T13:58:54.785Z,3.07
2018-05-18T14:02:55.643Z,4.02
2018-05-18T14:08:56.398Z,2.46
2018-05-18T14:12:57.114Z,2.43
2018-05-18T14:18:57.912Z,2.44
2018-05-18T14:24:58.612Z,1.98
2018-05-18T14:28:59.399Z,2
2018-05-18T14:35:00.245Z,2.99
2018-05-18T14:39:01.016Z,1.93
2018-05-18T14:41:01.726Z,1.87
2018-05-18T14:45:02.590Z,3.2
2018-05-18T14:51:03.359Z,1.86
2018-05-18T14:55:04.081Z,2.62
2018-05-18T15:01:04.972Z,2.26
2018-05-18T15:05:09.387Z,2.28
2018-05-18T15:07:10.345Z,2.77
2018-05-18T15:11:11.138Z,3.6
2018-05-18T15:17:12.045Z,2.92
2018-05-18T15:21:12.750Z,2.06
2018-05-18T15:27:13.528Z,2.72
2018-05-18T15:33:14.313Z,3.47
2018-05-18T15:37:15.173Z,3.51
2018-05-18T15:43:15.816Z,2.77
2018-05-18T15:47:16.514Z,2.07
2018-05-18T15:49:17.219Z,2.42
2018-05-18T15:53:17.991Z,2.99
2018-05-18T15:59:18.798Z,2.43
2018-05-18T16:03:19.535Z,3.12
2018-05-18T16:09:20.264Z,2.4
2018-05-18T16:13:20.987Z,3.84
2018-05-18T16:15:22.468Z,3.62
2018-05-18T16:19:22.858Z,4.58
2018-05-18T16:25:23.517Z,3.67
2018-05-18T16:29:29.800Z,3.19
2018-05-18T16:35:30.838Z,3.08
2018-05-18T16:41:31.594Z,3.47
2018-05-18T16:45:32.349Z,2.34
2018-05-18T16:51:33.057Z,2.83
2018-05-18T16:55:33.825Z,4.46
2018-05-18T16:57:34.575Z,3.46
2018-05-18T17:01:35.314Z,2.81
2018-05-18T17:07:36.022Z,2.73
2018-05-18T17:11:36.871Z,2.65
2018-05-18T17:17:37.631Z,2.69
2018-05-18T17:21:38.481Z,2.05
2018-05-18T17:23:39.187Z,2.66
2018-05-18T17:27:39.928Z,3.26
2018-05-18T17:33:40.669Z,5.15
2018-05-18T17:37:41.428Z,2.85
2018-05-18T17:43:42.220Z,3.45
2018-05-18T17:49:42.972Z,3.6
2018-05-18T17:53:43.640Z,3.8
2018-05-18T17:59:44.329Z,3.66
2018-05-18T18:03:45.039Z,3.2
2018-05-18T18:05:45.826Z,3.64
2018-05-18T18:09:46.584Z,5
2018-05-18T18:15:47.356Z,6.75
2018-05-18T18:19:48.006Z,3.76
2018-05-18T18:25:48.718Z,4.68
2018-05-18T18:31:49.501Z,4.07
2018-05-18T18:35:50.216Z,6
2018-05-18T18:41:50.946Z,4.14
2018-05-18T18:45:51.842Z,4.7
2018-05-18T18:51:52.618Z,3.66
2018-05-18T18:57:53.274Z,3.72
2018-05-18T19:01:54.032Z,3.46
2018-05-18T19:07:54.917Z,3.5
2018-05-18T19:11:55.540Z,3.52
2018-05-18T19:13:56.274Z,3.54
2018-05-18T19:17:56.953Z,3.78
2018-05-18T19:23:57.703Z,3.97
2018-05-18T19:27:58.400Z,4.35
2018-05-18T19:33:59.151Z,5.4
2018-05-18T19:39:59.897Z,5.18
2018-05-18T19:44:00.616Z,6.21
2018-05-18T19:50:01.582Z,4.28
2018-05-18T19:54:02.124Z,3.16
2018-05-18T19:56:02.803Z,3.81
2018-05-18T20:00:03.541Z,3.13
2018-05-18T20:06:04.279Z,5.04
2018-05-18T20:10:05.078Z,4.48
2018-05-18T20:16:05.785Z,3.94
2018-05-18T20:22:06.804Z,4.28
2018-05-18T20:26:07.574Z,3.93
2018-05-18T20:32:08.364Z,4.83
2018-05-18T20:36:09.136Z,3.62
2018-05-18T20:42:09.890Z,3.65
2018-05-18T20:48:10.629Z,4.97
2018-05-18T20:52:11.431Z,3.95
2018-05-18T20:58:12.176Z,3.45
2018-05-18T21:02:13.142Z,3.89
2018-05-18T21:04:13.842Z,3.11
2018-05-18T21:08:14.610Z,2.59
2018-05-18T21:14:15.388Z,9.39
2018-05-18T21:18:16.361Z,5.96
2018-05-18T21:24:17.224Z,4.72
2018-05-18T21:30:18.348Z,4.53
2018-05-18T21:34:19.006Z,4.08
2018-05-18T21:40:19.788Z,4.24
2018-05-18T21:44:20.481Z,3.39
2018-05-18T21:50:21.211Z,3.68
2018-05-18T21:56:21.936Z,3.34
2018-05-18T22:00:23.084Z,3.17
2018-05-18T22:06:23.942Z,3.21
2018-05-18T22:10:24.792Z,4.17
2018-05-18T22:12:25.753Z,4.58
2018-05-18T22:16:26.455Z,6.26
2018-05-18T22:22:27.179Z,4.55
2018-05-18T22:26:27.931Z,7.37
2018-05-18T22:32:28.632Z,5.74
2018-05-18T22:38:29.417Z,5.56
2018-05-18T22:42:30.202Z,4.97
2018-05-18T22:48:30.977Z,6.13
2018-05-18T22:52:31.748Z,6.62
2018-05-18T22:54:32.428Z,8.93
2018-05-18T22:58:33.204Z,7.83
2018-05-18T23:04:34.011Z,13.4
2018-05-18T23:08:34.748Z,12.4
2018-05-18T23:14:35.446Z,11.93
2018-05-18T23:18:36.293Z,11.6
2018-05-18T23:20:36.991Z,10.28
2018-05-18T23:24:37.705Z,11.06
2018-05-18T23:30:38.481Z,9.79
2018-05-18T23:34:39.128Z,8.76
2018-05-18T23:40:39.923Z,8.66
2018-05-18T23:46:41.090Z,8.5
2018-05-18T23:50:41.848Z,7.88
2018-05-18T23:56:42.565Z,7.21
